createdAt,value
2018-06-14T00:01:32.766Z,88.13
2018-06-14T00:04:02.443Z,87.95
2018-06-14T00:06:31.564Z,87.97
2018-06-14T00:09:00.557Z,87.36
2018-06-14T00:11:29.756Z,87.13
2018-06-14T00:13:59.262Z,88.36
2018-06-14T00:16:28.417Z,87.62
2018-06-14T00:18:57.528Z,87.33
2018-06-14T00:21:26.607Z,87.94
2018-06-14T00:23:55.567Z,87.45
2018-06-14T00:26:27.972Z,87.78
2018-06-14T00:28:57.387Z,88.43
2018-06-14T00:31:27.496Z,88.23
2018-06-14T00:33:56.707Z,88.16
2018-06-14T00:36:28.676Z,87.75
2018-06-14T00:38:57.966Z,88.46
2018-06-14T00:41:27.046Z,88.29
2018-06-14T00:43:56.152Z,88.98
2018-06-14T00:46:28.603Z,88.61
2018-06-14T00:48:57.707Z,88.38
2018-06-14T00:51:26.798Z,88.37
2018-06-14T00:53:55.899Z,88.66
2018-06-14T00:56:31.694Z,88.25
2018-06-14T00:59:00.768Z,88.34
2018-06-14T01:01:29.894Z,88.18
2018-06-14T01:03:59.151Z,88.04
2018-06-14T01:06:29.267Z,88.52
2018-06-14T01:08:58.406Z,88.33
2018-06-14T01:11:27.862Z,88.65
2018-06-14T01:13:57.179Z,88.67
2018-06-14T01:16:29.346Z,88.36
2018-06-14T01:18:58.446Z,89.22
2018-06-14T01:21:27.522Z,89.11
2018-06-14T01:23:56.622Z,89.29
2018-06-14T01:26:29.187Z,88.89
2018-06-14T01:28:58.294Z,88.53
2018-06-14T01:31:27.378Z,88.58
2018-06-14T01:33:56.475Z,88.78
2018-06-14T01:36:28.530Z,89.12
2018-06-14T01:38:57.638Z,89.26
2018-06-14T01:41:26.573Z,88.83
2018-06-14T01:43:55.632Z,89.31
2018-06-14T01:46:29.946Z,89.70
2018-06-14T01:48:59.052Z,89.88
2018-06-14T01:51:28.123Z,89.80
2018-06-14T01:53:57.282Z,89.58
2018-06-14T01:56:28.675Z,89.47
2018-06-14T01:58:57.982Z,89.53
2018-06-14T02:01:27.078Z,88.95
2018-06-14T02:03:56.179Z,89.59
2018-06-14T02:06:28.723Z,89.53
2018-06-14T02:08:58.169Z,89.39
2018-06-14T02:11:27.151Z,89.61
2018-06-14T02:13:56.362Z,89.56
2018-06-14T02:16:29.370Z,89.70
2018-06-14T02:18:58.351Z,89.50
2018-06-14T02:21:27.726Z,89.13
2018-06-14T02:23:56.816Z,89.52
2018-06-14T02:26:29.706Z,89.79
2018-06-14T02:28:58.796Z,90.01
2018-06-14T02:31:27.739Z,90.18
2018-06-14T02:33:56.991Z,89.69
2018-06-14T02:36:29.395Z,90.04
2018-06-14T02:38:58.352Z,89.95
2018-06-14T02:41:27.352Z,90.23
2018-06-14T02:43:56.480Z,89.95
2018-06-14T02:46:29.333Z,89.88
2018-06-14T02:48:59.234Z,90.12
2018-06-14T02:51:28.188Z,89.03
2018-06-14T02:53:57.426Z,89.18
2018-06-14T02:56:27.968Z,89.61
2018-06-14T02:58:56.927Z,89.72
2018-06-14T03:01:26.185Z,89.87
2018-06-14T03:03:55.259Z,89.74
2018-06-14T03:06:29.748Z,89.76
2018-06-14T03:08:59.030Z,90.17
2018-06-14T03:11:28.575Z,90.43
2018-06-14T03:13:57.515Z,89.98
2018-06-14T03:16:30.424Z,90.57
2018-06-14T03:18:59.631Z,90.99
2018-06-14T03:21:28.810Z,90.36
2018-06-14T03:23:57.802Z,90.46
2018-06-14T03:26:28.878Z,90.38
2018-06-14T03:28:58.344Z,90.20
2018-06-14T03:31:27.682Z,90.22
2018-06-14T03:33:56.837Z,89.91
2018-06-14T03:36:30.538Z,90.01
2018-06-14T03:38:59.684Z,89.75
2018-06-14T03:41:29.044Z,89.91
2018-06-14T03:43:58.265Z,89.71
2018-06-14T03:46:30.030Z,90.00
2018-06-14T03:48:59.248Z,89.53
2018-06-14T03:51:28.396Z,89.55
2018-06-14T03:53:57.620Z,88.99
2018-06-14T03:56:28.178Z,89.33
2018-06-14T03:58:57.467Z,89.18
2018-06-14T04:01:26.971Z,89.26
2018-06-14T04:03:56.607Z,88.95
2018-06-14T04:06:29.363Z,88.79
2018-06-14T04:08:58.562Z,88.80
2018-06-14T04:11:27.991Z,88.36
2018-06-14T04:13:57.442Z,88.32
2018-06-14T04:16:28.402Z,89.34
2018-06-14T04:18:57.504Z,89.01
2018-06-14T04:21:26.444Z,89.33
2018-06-14T04:23:55.513Z,88.94
2018-06-14T04:26:29.839Z,89.11
2018-06-14T04:28:59.194Z,88.96
2018-06-14T04:31:29.491Z,88.63
2018-06-14T04:33:58.602Z,88.29
2018-06-14T04:36:29.243Z,88.50
2018-06-14T04:38:58.329Z,88.65
2018-06-14T04:41:27.663Z,88.52
2018-06-14T04:43:56.724Z,87.87
2018-06-14T04:46:28.811Z,87.37
2018-06-14T04:48:57.891Z,87.26
2018-06-14T04:51:27.008Z,87.12
2018-06-14T04:53:57.100Z,86.03
2018-06-14T04:56:30.175Z,86.03
2018-06-14T04:58:59.612Z,86.38
2018-06-14T05:01:28.716Z,87.16
2018-06-14T05:03:57.858Z,86.28
2018-06-14T05:06:27.954Z,85.62
2018-06-14T05:08:57.232Z,85.01
2018-06-14T05:11:26.990Z,84.36
2018-06-14T05:13:56.277Z,83.79
2018-06-14T05:16:29.527Z,82.98
2018-06-14T05:18:58.658Z,83.39
2018-06-14T05:21:28.703Z,83.59
2018-06-14T05:23:58.175Z,83.66
2018-06-14T05:26:29.083Z,82.96
2018-06-14T05:28:58.419Z,81.11
2018-06-14T05:31:27.576Z,80.63
2018-06-14T05:33:56.847Z,80.38
2018-06-14T05:36:29.595Z,81.26
2018-06-14T05:38:58.868Z,81.85
2018-06-14T05:41:28.158Z,83.41
2018-06-14T05:43:57.122Z,84.00
2018-06-14T05:46:29.702Z,84.17
2018-06-14T05:48:59.022Z,84.83
2018-06-14T05:51:28.624Z,84.88
2018-06-14T05:53:57.590Z,84.63
2018-06-14T05:56:28.329Z,84.57
2018-06-14T05:58:57.456Z,82.68
2018-06-14T06:01:26.459Z,81.92
2018-06-14T06:03:55.671Z,80.75
2018-06-14T06:06:28.628Z,82.54
2018-06-14T06:08:57.690Z,83.58
2018-06-14T06:11:27.211Z,84.23
2018-06-14T06:13:56.163Z,83.06
2018-06-14T06:16:28.529Z,83.26
2018-06-14T06:18:57.695Z,83.14
2018-06-14T06:21:26.758Z,83.55
2018-06-14T06:23:55.890Z,83.77
2018-06-14T06:26:28.896Z,83.34
2018-06-14T06:28:58.539Z,83.87
2018-06-14T06:31:27.855Z,83.65
2018-06-14T06:33:56.958Z,83.08
2018-06-14T06:36:29.630Z,81.09
2018-06-14T06:38:58.574Z,80.95
2018-06-14T06:41:28.079Z,79.37
2018-06-14T06:43:57.153Z,80.28
2018-06-14T06:46:27.961Z,79.34
2018-06-14T06:48:57.591Z,79.18
2018-06-14T06:51:26.512Z,78.43
2018-06-14T06:53:55.938Z,76.84
2018-06-14T06:56:28.366Z,74.50
2018-06-14T06:58:58.093Z,70.11
2018-06-14T07:01:27.288Z,69.73
2018-06-14T07:03:56.374Z,66.27
2018-06-14T07:06:29.244Z,65.14
2018-06-14T07:08:58.446Z,59.82
2018-06-14T07:11:27.608Z,61.25
2018-06-14T07:13:57.062Z,60.34
2018-06-14T07:16:30.840Z,61.32
2018-06-14T07:19:00.748Z,61.76
2018-06-14T07:21:29.699Z,62.71
2018-06-14T07:23:58.985Z,62.26
2018-06-14T07:26:28.123Z,62.09
2018-06-14T07:28:57.239Z,60.69
2018-06-14T07:31:26.790Z,61.33
2018-06-14T07:33:56.456Z,60.75
2018-06-14T07:36:28.506Z,60.49
2018-06-14T07:38:57.428Z,56.22
2018-06-14T07:41:26.504Z,57.72
2018-06-14T07:43:55.876Z,55.69
2018-06-14T07:46:28.476Z,57.82
2018-06-14T07:48:57.802Z,57.15
2018-06-14T07:51:26.785Z,59.45
2018-06-14T07:53:56.039Z,58.71
2018-06-14T07:56:28.561Z,61.49
2018-06-14T07:58:57.860Z,61.12
2018-06-14T08:01:26.959Z,58.78
2018-06-14T08:03:56.063Z,59.58
2018-06-14T08:06:28.869Z,57.73
2018-06-14T08:08:57.756Z,59.95
2018-06-14T08:11:27.022Z,60.18
2018-06-14T08:13:56.139Z,59.62
2018-06-14T08:16:28.807Z,61.52
2018-06-14T08:18:57.900Z,59.39
2018-06-14T08:21:26.980Z,57.61
2018-06-14T08:23:56.432Z,57.17
2018-06-14T08:26:29.563Z,57.92
2018-06-14T08:28:58.686Z,57.41
2018-06-14T08:31:27.961Z,54.84
2018-06-14T08:33:57.264Z,49.63
2018-06-14T08:36:29.248Z,47.84
2018-06-14T08:38:58.346Z,48.39
2018-06-14T08:41:27.412Z,50.52
2018-06-14T08:43:56.507Z,49.87
2018-06-14T08:46:29.408Z,48.75
2018-06-14T08:48:58.484Z,49.40
2018-06-14T08:51:27.474Z,49.33
2018-06-14T08:53:56.680Z,50.46
2018-06-14T08:56:27.530Z,50.99
2018-06-14T08:58:56.596Z,50.98
2018-06-14T09:01:25.711Z,50.42
2018-06-14T09:03:54.993Z,50.55
2018-06-14T09:06:28.755Z,49.98
2018-06-14T09:08:57.803Z,49.07
2018-06-14T09:11:26.910Z,50.23
2018-06-14T09:13:56.028Z,49.76
2018-06-14T09:16:27.683Z,47.99
2018-06-14T09:18:56.751Z,48.74
2018-06-14T09:21:25.675Z,48.89
2018-06-14T09:23:55.177Z,48.07
2018-06-14T09:26:27.533Z,48.58
2018-06-14T09:28:56.611Z,48.09
2018-06-14T09:31:25.710Z,47.25
2018-06-14T09:33:55.028Z,46.28
2018-06-14T09:36:31.636Z,45.91
2018-06-14T09:39:00.574Z,43.15
2018-06-14T09:41:29.702Z,41.86
2018-06-14T09:43:58.971Z,46.40
2018-06-14T09:46:28.575Z,45.97
2018-06-14T09:49:02.965Z,45.17
2018-06-14T09:51:32.223Z,44.79
2018-06-14T09:54:01.145Z,42.46
2018-06-14T09:56:30.198Z,44.44
2018-06-14T09:58:59.267Z,45.94
2018-06-14T10:01:29.020Z,45.21
2018-06-14T10:03:58.118Z,43.55
2018-06-14T10:06:28.468Z,43.00
2018-06-14T10:08:57.594Z,44.32
2018-06-14T10:11:26.543Z,42.36
2018-06-14T10:13:56.210Z,44.21
2018-06-14T10:16:29.711Z,45.37
2018-06-14T10:18:58.787Z,42.38
2018-06-14T10:21:27.728Z,41.87
2018-06-14T10:23:56.979Z,42.20
2018-06-14T10:26:27.724Z,45.42
2018-06-14T10:28:56.619Z,45.75
2018-06-14T10:31:25.527Z,46.70
2018-06-14T10:33:54.607Z,43.05
2018-06-14T10:36:27.745Z,41.81
2018-06-14T10:38:56.667Z,41.63
2018-06-14T10:41:25.763Z,42.44
2018-06-14T10:43:54.867Z,40.56
2018-06-14T10:46:28.971Z,38.79
2018-06-14T10:48:58.071Z,41.34
2018-06-14T10:51:27.017Z,43.85
2018-06-14T10:53:56.284Z,44.90
2018-06-14T10:56:29.275Z,46.72
2018-06-14T10:58:58.346Z,46.68
2018-06-14T11:01:27.286Z,44.03
2018-06-14T11:03:56.535Z,46.10
2018-06-14T11:06:29.044Z,47.48
2018-06-14T11:08:58.999Z,47.30
2018-06-14T11:11:28.223Z,46.61
2018-06-14T11:13:57.336Z,45.54
2018-06-14T11:16:29.739Z,44.86
2018-06-14T11:18:59.668Z,44.57
2018-06-14T11:21:28.937Z,45.60
2018-06-14T11:23:58.443Z,46.18
2018-06-14T11:26:28.216Z,46.75
2018-06-14T11:28:57.197Z,48.06
2018-06-14T11:31:26.323Z,47.29
2018-06-14T11:33:55.696Z,47.26
2018-06-14T11:36:27.895Z,47.73
2018-06-14T11:38:56.853Z,46.43
2018-06-14T11:41:26.103Z,47.42
2018-06-14T11:43:55.187Z,48.99
2018-06-14T11:46:27.679Z,48.75
2018-06-14T11:48:57.007Z,49.29
2018-06-14T11:51:26.475Z,46.74
2018-06-14T11:53:55.743Z,47.33
2018-06-14T11:56:27.724Z,46.61
2018-06-14T11:58:56.666Z,46.75
2018-06-14T12:01:26.527Z,45.80
2018-06-14T12:03:56.514Z,46.27
2018-06-14T12:06:29.067Z,45.32
2018-06-14T12:08:58.107Z,44.97
2018-06-14T12:11:27.031Z,45.74
2018-06-14T12:13:56.118Z,46.13
2018-06-14T12:16:28.795Z,46.98
2018-06-14T12:18:57.893Z,46.95
2018-06-14T12:21:26.992Z,47.98
2018-06-14T12:23:56.109Z,48.82
2018-06-14T12:26:29.565Z,46.40
2018-06-14T12:28:58.689Z,45.53
2018-06-14T12:31:28.316Z,47.25
2018-06-14T12:33:57.730Z,46.48
2018-06-14T12:36:27.287Z,44.01
2018-06-14T12:38:56.343Z,43.88
2018-06-14T12:41:26.183Z,44.27
2018-06-14T12:43:55.970Z,45.37
2018-06-14T12:46:28.151Z,45.39
2018-06-14T12:48:57.306Z,45.81
2018-06-14T12:51:26.363Z,46.29
2018-06-14T12:53:55.467Z,45.56
2018-06-14T12:56:27.702Z,44.96
2018-06-14T12:58:57.293Z,46.28
2018-06-14T13:01:27.558Z,47.54
2018-06-14T13:03:56.655Z,48.51
2018-06-14T13:06:27.757Z,48.46
2018-06-14T13:08:56.931Z,47.73
2018-06-14T13:11:25.961Z,47.66
2018-06-14T13:13:55.066Z,47.07
2018-06-14T13:16:27.154Z,46.16
2018-06-14T13:18:56.243Z,46.19
2018-06-14T13:21:25.327Z,47.29
2018-06-14T13:23:54.431Z,46.72
2018-06-14T13:26:26.444Z,47.40
2018-06-14T13:28:56.483Z,48.34
2018-06-14T13:31:25.927Z,47.15
2018-06-14T13:33:55.367Z,46.10
2018-06-14T13:36:28.150Z,46.98
2018-06-14T13:38:57.534Z,45.80
2018-06-14T13:41:26.433Z,47.48
2018-06-14T13:43:56.100Z,46.14
2018-06-14T13:46:28.669Z,46.70
2018-06-14T13:48:57.885Z,47.87
2018-06-14T13:51:27.262Z,47.44
2018-06-14T13:53:56.570Z,46.50
2018-06-14T13:56:27.424Z,45.24
2018-06-14T13:58:56.396Z,44.73
2018-06-14T14:01:25.710Z,45.00
2018-06-14T14:03:55.122Z,44.54
2018-06-14T14:06:27.371Z,45.19
2018-06-14T14:08:56.478Z,44.92
2018-06-14T14:11:25.424Z,43.93
2018-06-14T14:13:55.131Z,45.44
2018-06-14T14:16:29.166Z,44.88
2018-06-14T14:18:58.339Z,45.59
2018-06-14T14:21:27.784Z,45.05
2018-06-14T14:23:57.414Z,46.08
2018-06-14T14:26:28.723Z,46.93
2018-06-14T14:28:57.832Z,46.69
2018-06-14T14:31:26.809Z,46.44
2018-06-14T14:33:56.144Z,46.12
2018-06-14T14:36:28.492Z,45.85
2018-06-14T14:38:57.452Z,46.65
2018-06-14T14:41:26.675Z,46.45
2018-06-14T14:43:55.810Z,45.21
2018-06-14T14:46:28.466Z,46.03
2018-06-14T14:48:57.687Z,45.89
2018-06-14T14:51:26.847Z,46.08
2018-06-14T14:53:55.817Z,45.88
2018-06-14T14:56:28.142Z,46.56
2018-06-14T14:58:57.128Z,47.60
2018-06-14T15:01:26.759Z,47.22
2018-06-14T15:03:56.131Z,47.87
2018-06-14T15:06:29.155Z,47.71
2018-06-14T15:08:59.241Z,48.57
2018-06-14T15:11:28.545Z,49.12
2018-06-14T15:13:58.149Z,48.22
2018-06-14T15:16:28.357Z,49.23
2018-06-14T15:18:57.367Z,47.93
2018-06-14T15:21:26.613Z,48.25
2018-06-14T15:23:56.753Z,48.63
2018-06-14T15:26:28.959Z,47.99
2018-06-14T15:28:58.254Z,48.25
2018-06-14T15:31:27.340Z,48.08
2018-06-14T15:33:56.442Z,47.82
2018-06-14T15:36:27.388Z,47.50
2018-06-14T15:38:57.288Z,49.01
2018-06-14T15:41:26.376Z,49.41
2018-06-14T15:43:55.338Z,49.69
2018-06-14T15:46:28.167Z,50.81
2018-06-14T15:48:57.267Z,51.54
2018-06-14T15:51:26.540Z,52.33
2018-06-14T15:53:56.054Z,51.93
2018-06-14T15:56:34.815Z,51.71
2018-06-14T15:59:06.899Z,52.20
2018-06-14T16:01:36.062Z,54.57
2018-06-14T16:04:05.975Z,54.40
2018-06-14T16:06:35.342Z,54.60
2018-06-14T16:09:06.727Z,53.28
2018-06-14T16:11:36.224Z,55.04
2018-06-14T16:14:06.013Z,57.15
2018-06-14T16:16:35.206Z,59.41
2018-06-14T16:19:04.758Z,61.58
2018-06-14T16:21:34.696Z,64.07
2018-06-14T16:24:03.644Z,67.39
2018-06-14T16:26:32.628Z,70.96
2018-06-14T16:29:01.829Z,73.83
2018-06-14T16:31:30.771Z,75.15
2018-06-14T16:34:00.024Z,77.09
2018-06-14T16:36:29.212Z,78.65
2018-06-14T16:38:58.302Z,79.64
2018-06-14T16:41:27.431Z,80.01
2018-06-14T16:43:57.318Z,81.62
2018-06-14T16:46:28.364Z,82.60
2018-06-14T16:48:57.455Z,83.39
2018-06-14T16:51:27.742Z,84.00
2018-06-14T16:53:56.863Z,84.56
2018-06-14T16:56:27.538Z,85.07
2018-06-14T16:58:56.431Z,85.71
2018-06-14T17:01:25.771Z,86.79
2018-06-14T17:03:55.036Z,86.47
2018-06-14T17:06:27.507Z,86.43
2018-06-14T17:08:57.167Z,87.07
2018-06-14T17:11:26.331Z,87.52
2018-06-14T17:13:55.586Z,88.14
2018-06-14T17:16:28.662Z,88.64
2018-06-14T17:18:57.742Z,88.31
2018-06-14T17:21:27.220Z,88.42
2018-06-14T17:23:56.817Z,88.87
2018-06-14T17:26:28.957Z,89.10
2018-06-14T17:28:58.015Z,89.21
2018-06-14T17:31:27.201Z,89.97
2018-06-14T17:33:56.138Z,91.03
2018-06-14T17:36:28.943Z,90.24
2018-06-14T17:38:58.393Z,90.90
2018-06-14T17:41:27.612Z,90.05
2018-06-14T17:43:56.592Z,90.42
2018-06-14T17:46:27.144Z,90.73
2018-06-14T17:48:56.208Z,90.94
2018-06-14T17:51:25.914Z,90.61
2018-06-14T17:53:55.036Z,92.08
2018-06-14T17:56:27.570Z,91.33
2018-06-14T17:58:57.683Z,92.30
2018-06-14T18:01:26.987Z,91.95
2018-06-14T18:03:56.442Z,91.51
2018-06-14T18:06:28.860Z,92.10
2018-06-14T18:08:57.735Z,92.18
2018-06-14T18:11:27.579Z,92.27
2018-06-14T18:13:56.586Z,92.33
2018-06-14T18:16:28.963Z,91.93
2018-06-14T18:18:58.241Z,93.14
2018-06-14T18:21:27.567Z,92.46
2018-06-14T18:23:56.559Z,92.25
2018-06-14T18:26:30.177Z,92.51
2018-06-14T18:28:59.482Z,93.45
2018-06-14T18:31:29.414Z,94.45
2018-06-14T18:33:58.458Z,96.04
2018-06-14T18:36:28.389Z,96.82
2018-06-14T18:38:57.459Z,96.82
2018-06-14T18:41:26.632Z,97.85
2018-06-14T18:43:55.823Z,97.54
2018-06-14T18:46:28.736Z,97.03
2018-06-14T18:48:58.047Z,97.06
2018-06-14T18:51:27.003Z,97.52
2018-06-14T18:53:56.184Z,96.04
2018-06-14T18:56:28.162Z,96.73
2018-06-14T18:58:57.626Z,96.53
2018-06-14T19:01:26.857Z,96.78
2018-06-14T19:03:56.446Z,97.17
2018-06-14T19:06:29.143Z,96.08
2018-06-14T19:08:59.779Z,96.45
2018-06-14T19:11:28.897Z,96.70
2018-06-14T19:13:58.135Z,97.52
2018-06-14T19:16:27.373Z,97.18
2018-06-14T19:18:56.852Z,95.86
2018-06-14T19:21:25.913Z,96.12
2018-06-14T19:23:55.052Z,95.95
2018-06-14T19:26:27.235Z,96.05
2018-06-14T19:28:56.521Z,96.25
2018-06-14T19:31:26.124Z,96.74
2018-06-14T19:33:55.583Z,95.67
2018-06-14T19:36:28.548Z,95.19
2018-06-14T19:38:57.831Z,95.48
2018-06-14T19:41:26.923Z,96.09
2018-06-14T19:43:56.430Z,95.76
2018-06-14T19:46:28.030Z,96.35
2018-06-14T19:48:57.312Z,96.66
2018-06-14T19:51:26.535Z,96.78
2018-06-14T19:53:58.971Z,96.53
2018-06-14T19:56:30.326Z,96.62
2018-06-14T19:59:02.451Z,97.20
2018-06-14T20:01:32.443Z,97.27
2018-06-14T20:04:03.098Z,97.41
2018-06-14T20:06:33.254Z,97.79
2018-06-14T20:09:04.187Z,97.63
2018-06-14T20:11:35.347Z,97.82
2018-06-14T20:14:05.221Z,97.38
2018-06-14T20:16:35.054Z,98.00
2018-06-14T20:19:06.497Z,98.01
2018-06-14T20:21:36.710Z,97.68
2018-06-14T20:24:06.850Z,96.97
2018-06-14T20:26:37.914Z,97.16
2018-06-14T20:29:08.197Z,96.83
2018-06-14T20:31:38.034Z,97.14
2018-06-14T20:34:08.445Z,95.79
2018-06-14T20:36:38.384Z,96.37
2018-06-14T20:39:12.378Z,96.57
2018-06-14T20:41:43.727Z,96.37
2018-06-14T20:44:13.421Z,95.72
2018-06-14T20:46:47.668Z,96.31
2018-06-14T20:49:17.041Z,95.75
2018-06-14T20:51:46.945Z,94.70
2018-06-14T20:54:16.706Z,95.10
2018-06-14T20:56:46.694Z,95.28
2018-06-14T20:59:17.606Z,95.32
2018-06-14T21:01:47.224Z,96.19
2018-06-14T21:04:17.540Z,96.38
2018-06-14T21:06:47.380Z,96.20
2018-06-14T21:09:18.267Z,96.56
2018-06-14T21:11:49.488Z,97.08
2018-06-14T21:14:20.382Z,97.00
2018-06-14T21:16:52.491Z,96.32
2018-06-14T21:19:23.397Z,96.09
2018-06-14T21:21:57.753Z,96.38
2018-06-14T21:24:27.016Z,96.63
2018-06-14T21:26:55.969Z,96.57
2018-06-14T21:29:25.075Z,96.68
2018-06-14T21:31:56.586Z,96.58
2018-06-14T21:34:27.698Z,96.96
2018-06-14T21:36:58.833Z,96.96
2018-06-14T21:39:30.098Z,96.23
2018-06-14T21:41:59.531Z,96.41
2018-06-14T21:44:30.853Z,96.34
2018-06-14T21:47:01.198Z,96.05
2018-06-14T21:49:32.152Z,97.17
2018-06-14T21:52:01.288Z,98.23
2018-06-14T21:54:31.611Z,98.08
2018-06-14T21:57:00.744Z,97.38
2018-06-14T21:59:29.895Z,97.62
2018-06-14T22:01:59.166Z,97.25
2018-06-14T22:04:28.275Z,98.08
2018-06-14T22:06:57.376Z,97.48
2018-06-14T22:09:27.090Z,98.22
2018-06-14T22:11:56.523Z,98.17
2018-06-14T22:14:26.062Z,98.18
2018-06-14T22:16:55.365Z,98.47
2018-06-14T22:19:24.574Z,98.14
2018-06-14T22:21:53.675Z,98.12
2018-06-14T22:24:22.622Z,98.10
2018-06-14T22:26:51.603Z,97.77
2018-06-14T22:29:20.734Z,97.67
2018-06-14T22:31:49.700Z,97.79
2018-06-14T22:34:29.757Z,97.42
2018-06-14T22:36:59.399Z,97.92
2018-06-14T22:39:28.921Z,98.18
2018-06-14T22:41:57.900Z,98.69
2018-06-14T22:44:27.148Z,98.60
2018-06-14T22:46:56.416Z,99.11
2018-06-14T22:49:25.333Z,99.11
2018-06-14T22:53:02.138Z,99.10
2018-06-14T22:55:31.694Z,98.90
2018-06-14T22:58:00.863Z,98.13
2018-06-14T23:01:42.390Z,98.83
2018-06-14T23:04:15.151Z,98.96
2018-06-14T23:06:44.462Z,99.40
2018-06-14T23:10:24.452Z,98.46
2018-06-14T23:12:53.506Z,98.61
2018-06-14T23:15:22.943Z,99.11
2018-06-14T23:17:52.736Z,99.05
2018-06-14T23:20:23.082Z,98.28
2018-06-14T23:22:53.843Z,97.95
2018-06-14T23:25:23.891Z,98.23
2018-06-14T23:27:52.994Z,98.12
2018-06-14T23:30:22.090Z,98.63
2018-06-14T23:32:51.424Z,98.20
2018-06-14T23:35:20.709Z,97.87
2018-06-14T23:37:50.362Z,98.28
2018-06-14T23:40:19.482Z,98.57
2018-06-14T23:42:49.091Z,97.84
2018-06-14T23:45:18.363Z,98.88
2018-06-14T23:47:47.540Z,99.58
2018-06-14T23:50:16.809Z,99.21
2018-06-14T23:52:45.739Z,99.07
2018-06-14T23:55:15.041Z,98.60
2018-06-14T23:57:43.998Z,99.07
